Accueil
METAR-TAF:

METAR-TAF

Aéroports :

Emmen, Suisse

latitude: 47-05-32N, longitude: 8-18-16E, altitude: 426 m

Observation

Le bulletin a été fait il y a 12 minutes, à 06:20 UTC
Vent 2 kt de direction variable
Température 5°C
Humidité 75%
Pression 1029 hPa
Visibilité 10 km ou plus
Nuages épars à une hauteur de 2500 ft
Ciel couvert à une hauteur de 4800 ft
faibles averses de pluie

METAR: LSME 210620Z VRB02KT 9999 -SHRA SCT025 OVC048 05/01 Q1029 RMK BLU

Heure: 07:32 (06:32 UTC)


TAF: absent

Observations et prévisions météorologiques de plus de 4000 aéroports (messages METAR et TAF).

Les stations disponibles sont représentées par des disques jaunes et rouges sur la carte.

Passer la souris dessus pour voir le nom de la station.

Cliquer dessus pour voir les observations et prévisions météorologiques.

Pour changer de carte: cliquez sur les boutons verts avec une croix noire pour zoomer, sur le bouton vert avec un tiret pour effectuer un zoom arrière, ou sur les flèches vertes pour les cartes adjacentes.


METAR-TAF: